Time;durP1;ratioP1;P1;durP2;ratioP2;P2;SDS_P1;SDS_P2;PMS_P1;PMS_P2;Temp;Humidity;BMP_temperature;BMP_pressure;BME280_temperature;BME280_humidity;BME280_pressure;Samples;Min_cycle;Max_cycle;Signal;HPM_P1;HPM_P2
2022/11/17 00:01:59;;;;;;;8.07;6.80;;;8.20;99.90;;;;;;4972869;28;20188;-64
2022/11/17 00:04:27;;;;;;;7.90;7.10;;;8.20;99.90;;;;;;4973069;28;20701;-64
2022/11/17 00:06:53;;;;;;;11.10;8.13;;;8.20;99.90;;;;;;4971183;28;20208;-64
2022/11/17 00:09:19;;;;;;;9.40;8.40;;;8.20;99.90;;;;;;4971315;28;20506;-64
2022/11/17 00:14:31;;;;;;;8.97;7.13;;;8.10;99.90;;;;;;4973106;28;20194;-64
2022/11/17 00:16:57;;;;;;;9.00;8.10;;;8.10;99.90;;;;;;4971990;28;20878;-64
2022/11/17 00:22:06;;;;;;;8.03;7.30;;;8.20;99.90;;;;;;4972527;28;20186;-65
2022/11/17 00:24:32;;;;;;;10.20;7.80;;;8.30;99.90;;;;;;4972745;28;20444;-64
2022/11/17 00:27:00;;;;;;;9.10;8.17;;;8.20;99.90;;;;;;4971860;28;20709;-64
2022/11/17 00:29:26;;;;;;;10.60;8.57;;;8.20;99.90;;;;;;4971510;28;20642;-64
2022/11/17 00:34:37;;;;;;;8.93;8.03;;;8.10;99.90;;;;;;4981224;28;20473;-65
2022/11/17 00:37:03;;;;;;;9.50;8.60;;;8.10;99.90;;;;;;4981573;28;20489;-65
2022/11/17 00:39:29;;;;;;;11.03;8.30;;;8.10;99.90;;;;;;4971273;28;20262;-65
2022/11/17 00:41:55;;;;;;;8.53;7.70;;;8.00;99.90;;;;;;4973176;28;20521;-64
2022/11/17 00:44:21;;;;;;;9.77;8.97;;;8.00;99.90;;;;;;4972593;28;20489;-64
2022/11/17 00:46:47;;;;;;;8.90;7.80;;;8.00;99.90;;;;;;4971379;28;20346;-64
2022/11/17 00:49:13;;;;;;;9.93;8.90;;;8.00;99.90;;;;;;4971479;28;20176;-64
2022/11/17 00:51:39;;;;;;;13.60;9.30;;;8.00;99.90;;;;;;4972401;28;20463;-64
2022/11/17 00:54:06;;;;;;;11.93;8.63;;;8.00;99.90;;;;;;4972262;28;20440;-64
2022/11/17 00:56:32;;;;;;;11.47;9.50;;;7.90;99.90;;;;;;4972230;28;20466;-64
2022/11/17 00:58:58;;;;;;;11.60;10.40;;;7.90;99.90;;;;;;4973693;28;20534;-65
2022/11/17 01:01:25;;;;;;;11.43;8.90;;;7.90;99.90;;;;;;4976208;28;20176;-64
2022/11/17 01:04:01;;;;;;;10.93;10.00;;;7.90;99.90;;;;;;4976199;28;20443;-64
2022/11/17 01:06:28;;;;;;;12.93;9.63;;;7.90;99.90;;;;;;4997892;23;20485;-66
2022/11/17 01:08:54;;;;;;;10.47;9.37;;;7.90;99.90;;;;;;4974719;28;20471;-65
2022/11/17 01:11:19;;;;;;;9.53;8.43;;;8.00;99.90;;;;;;4976362;28;20467;-66
2022/11/17 01:13:46;;;;;;;9.60;8.60;;;8.00;99.90;;;;;;4975255;28;20191;-65
2022/11/17 01:16:17;;;;;;;19.00;8.37;;;8.00;99.90;;;;;;4976805;28;20575;-65
2022/11/17 01:18:45;;;;;;;9.37;8.30;;;8.00;99.90;;;;;;4974928;28;20489;-67
2022/11/17 01:21:22;;;;;;;10.00;8.57;;;8.00;99.90;;;;;;4975924;28;20505;-66
2022/11/17 01:23:50;;;;;;;9.77;8.87;;;8.00;99.90;;;;;;4976061;28;20435;-65
2022/11/17 01:26:19;;;;;;;10.50;8.40;;;8.00;99.90;;;;;;4975996;28;20471;-66
2022/11/17 01:28:46;;;;;;;9.40;8.50;;;8.00;99.90;;;;;;4974422;28;20526;-65
2022/11/17 01:31:18;;;;;;;9.03;8.13;;;8.10;99.90;;;;;;4978346;28;20799;-65
2022/11/17 01:33:44;;;;;;;8.07;7.33;;;8.10;99.90;;;;;;4984658;28;20434;-66
2022/11/17 01:36:16;;;;;;;10.33;8.37;;;8.10;99.90;;;;;;4987202;28;20811;-66
2022/11/17 01:38:42;;;;;;;10.17;8.87;;;8.10;99.90;;;;;;4988879;28;20452;-66
2022/11/17 01:41:20;;;;;;;10.07;9.03;;;8.10;99.90;;;;;;4975098;28;20800;-65
2022/11/17 01:43:54;;;;;;;11.07;9.23;;;8.00;99.90;;;;;;4979832;28;20518;-66
2022/11/17 01:46:28;;;;;;;10.43;9.00;;;8.00;99.90;;;;;;4979317;28;20901;-66
2022/11/17 01:49:01;;;;;;;10.30;9.23;;;8.00;99.90;;;;;;4975284;28;21027;-66
2022/11/17 01:51:29;;;;;;;9.80;8.87;;;7.90;99.90;;;;;;4976881;28;20434;-66
2022/11/17 01:53:55;;;;;;;12.23;9.30;;;7.90;99.90;;;;;;4984349;28;20805;-66
2022/11/17 01:56:28;;;;;;;12.87;9.00;;;7.90;99.90;;;;;;4981025;28;20455;-65
2022/11/17 01:59:00;;;;;;;10.60;9.53;;;7.90;99.90;;;;;;4974163;28;20235;-66
2022/11/17 02:01:26;;;;;;;11.10;9.83;;;8.00;99.90;;;;;;4975273;28;20948;-65
2022/11/17 02:03:51;;;;;;;11.70;9.10;;;8.00;99.90;;;;;;4975217;28;20437;-68
2022/11/17 02:06:37;;;;;;;11.93;8.60;;;8.00;99.90;;;;;;4974977;28;20286;-66
2022/11/17 02:09:03;;;;;;;9.90;8.90;;;8.00;99.90;;;;;;4972596;28;20273;-68
2022/11/17 02:11:34;;;;;;;10.40;9.30;;;8.00;99.90;;;;;;4974439;28;20945;-66
2022/11/17 02:14:01;;;;;;;10.70;9.60;;;8.00;99.90;;;;;;4975076;28;20227;-65
2022/11/17 02:16:27;;;;;;;9.73;8.80;;;7.90;99.90;;;;;;4973955;28;20463;-66
2022/11/17 02:18:52;;;;;;;11.27;10.17;;;7.90;99.90;;;;;;4973640;28;20446;-66
2022/11/17 02:21:21;;;;;;;9.83;8.70;;;7.90;99.90;;;;;;4973940;28;20189;-65
2022/11/17 02:24:08;;;;;;;12.93;9.27;;;7.80;99.90;;;;;;4975237;28;20195;-65
2022/11/17 02:26:36;;;;;;;9.27;8.40;;;7.80;99.90;;;;;;4970160;28;20473;-66
2022/11/17 02:29:26;;;;;;;9.70;8.90;;;7.80;99.90;;;;;;4974556;28;20439;-65
2022/11/17 02:32:16;;;;;;;8.80;7.43;;;7.80;99.90;;;;;;4975739;28;20459;-66
2022/11/17 02:34:51;;;;;;;11.63;8.70;;;7.80;99.90;;;;;;4974783;28;20438;-65
2022/11/17 02:37:30;;;;;;;9.90;9.00;;;7.80;99.90;;;;;;4978466;28;20467;-66
2022/11/17 02:40:07;;;;;;;10.07;9.07;;;7.70;99.90;;;;;;4979311;28;20865;-66
2022/11/17 02:45:33;;;;;;;9.80;8.87;;;7.60;99.90;;;;;;4975933;28;20449;-66
2022/11/17 02:48:04;;;;;;;10.50;9.40;;;7.70;99.90;;;;;;4982387;28;20456;-66
2022/11/17 02:50:31;;;;;;;10.57;8.27;;;7.60;99.90;;;;;;4984200;28;21075;-66
2022/11/17 02:52:56;;;;;;;9.70;8.77;;;7.70;99.90;;;;;;4983221;28;20447;-66
2022/11/17 02:55:22;;;;;;;10.03;8.70;;;7.60;99.90;;;;;;4982679;28;20462;-66
2022/11/17 02:57:48;;;;;;;9.87;8.07;;;7.70;99.90;;;;;;4982948;28;20275;-65
2022/11/17 03:00:16;;;;;;;11.33;8.80;;;7.60;99.90;;;;;;4984913;28;20177;-66
2022/11/17 03:03:09;;;;;;;13.50;8.80;;;7.60;99.90;;;;;;4985897;28;20450;-65
2022/11/17 03:06:12;;;;;;;9.27;8.47;;;7.80;99.90;;;;;;4972552;28;20439;-65
2022/11/17 03:09:01;;;;;;;12.20;9.47;;;7.80;99.90;;;;;;4974326;28;20443;-65
2022/11/17 03:11:58;;;;;;;10.00;7.40;;;7.90;99.90;;;;;;4974689;28;20876;-66
2022/11/17 03:14:34;;;;;;;10.17;7.90;;;8.00;99.90;;;;;;4978361;28;20590;-66
2022/11/17 03:17:22;;;;;;;10.30;8.17;;;8.00;99.90;;;;;;4983795;28;21009;-66
2022/11/17 03:20:15;;;;;;;8.50;7.70;;;7.90;99.90;;;;;;4970869;28;20523;-65
2022/11/17 03:23:06;;;;;;;8.20;7.50;;;7.90;99.90;;;;;;4971767;28;20460;-66
2022/11/17 03:25:36;;;;;;;8.10;7.40;;;7.90;99.90;;;;;;4955411;28;20439;-65
2022/11/17 03:28:05;;;;;;;7.93;7.00;;;7.80;99.90;;;;;;4972693;28;20463;-66
2022/11/17 03:30:33;;;;;;;6.57;5.90;;;7.80;99.90;;;;;;4979650;28;20438;-65
2022/11/17 03:33:06;;;;;;;10.60;5.90;;;7.90;99.90;;;;;;4974108;28;20436;-65
2022/11/17 03:35:37;;;;;;;7.90;5.23;;;7.90;99.90;;;;;;4984539;28;20443;-66
2022/11/17 03:38:11;;;;;;;5.33;4.83;;;8.00;99.90;;;;;;4985394;28;20884;-65
2022/11/17 03:40:39;;;;;;;4.20;3.70;;;8.10;99.90;;;;;;4976857;28;20441;-65
2022/11/17 03:43:08;;;;;;;5.90;5.40;;;8.10;99.90;;;;;;4972394;28;20435;-65
2022/11/17 03:45:38;;;;;;;5.97;5.37;;;8.20;99.90;;;;;;5003493;28;20440;-66
2022/11/17 03:48:13;;;;;;;4.30;3.93;;;8.20;99.90;;;;;;4972271;28;20521;-66
2022/11/17 03:51:14;;;;;;;5.07;4.63;;;8.20;99.90;;;;;;4973470;28;20427;-66
2022/11/17 03:53:41;;;;;;;3.97;3.60;;;8.20;99.90;;;;;;4970261;28;20446;-66
2022/11/17 03:56:26;;;;;;;3.93;3.27;;;8.30;99.90;;;;;;4986555;28;20803;-66
2022/11/17 03:59:07;;;;;;;6.10;4.40;;;8.30;99.90;;;;;;4976182;28;20443;-66
2022/11/17 04:01:34;;;;;;;6.70;4.30;;;8.30;99.90;;;;;;4977605;28;20443;-65
2022/11/17 04:03:59;;;;;;;3.93;3.53;;;8.40;99.90;;;;;;4983812;28;20442;-69
2022/11/17 04:06:25;;;;;;;4.63;4.23;;;8.40;99.90;;;;;;4972860;28;20543;-66
2022/11/17 04:08:51;;;;;;;4.47;4.03;;;8.40;99.90;;;;;;4981076;28;20176;-66
2022/11/17 04:16:44;;;;;;;6.27;3.97;;;8.40;99.90;;;;;;4981004;28;20541;-66
2022/11/17 04:19:10;;;;;;;5.30;4.30;;;8.40;99.90;;;;;;4979370;28;20439;-65
2022/11/17 04:21:35;;;;;;;6.93;3.87;;;8.40;99.90;;;;;;4972911;28;20180;-66
2022/11/17 04:24:01;;;;;;;4.53;4.13;;;8.40;99.90;;;;;;4972913;28;20187;-66
2022/11/17 04:29:10;;;;;;;4.80;4.23;;;8.50;99.90;;;;;;4978356;28;20227;-65
2022/11/17 04:31:36;;;;;;;5.20;3.87;;;8.50;99.90;;;;;;4980127;28;20853;-66
2022/11/17 04:34:04;;;;;;;4.43;4.03;;;8.50;99.90;;;;;;4982382;28;20176;-66
2022/11/17 04:36:45;;;;;;;4.63;4.20;;;8.50;99.90;;;;;;4984417;28;20196;-66
2022/11/17 04:39:12;;;;;;;5.47;4.97;;;8.60;99.90;;;;;;4969754;28;20525;-65
2022/11/17 04:41:56;;;;;;;5.10;4.50;;;8.60;99.90;;;;;;4981765;28;20442;-65
2022/11/17 04:44:25;;;;;;;5.20;4.80;;;8.60;99.90;;;;;;4977269;28;20441;-66
2022/11/17 04:46:51;;;;;;;4.83;4.43;;;8.60;99.90;;;;;;4982294;28;20478;-65
2022/11/17 04:49:18;;;;;;;4.67;4.27;;;8.60;99.90;;;;;;4976858;28;20439;-66
2022/11/17 04:51:44;;;;;;;4.97;4.40;;;8.60;99.90;;;;;;4982039;28;20435;-66
2022/11/17 04:54:13;;;;;;;4.93;4.53;;;8.60;99.90;;;;;;4985245;28;20470;-65
2022/11/17 04:56:38;;;;;;;5.80;5.20;;;8.60;99.90;;;;;;4987557;28;20485;-65
2022/11/17 04:59:05;;;;;;;5.60;5.07;;;8.60;99.90;;;;;;4975560;28;20444;-66
2022/11/17 05:01:31;;;;;;;5.10;4.50;;;8.60;99.90;;;;;;4974610;28;20180;-66
2022/11/17 05:04:02;;;;;;;7.87;6.50;;;8.60;99.90;;;;;;4975020;28;20444;-66
2022/11/17 05:06:33;;;;;;;7.70;5.23;;;8.60;99.90;;;;;;4975455;28;20467;-66
2022/11/17 05:09:03;;;;;;;7.33;6.20;;;8.60;99.90;;;;;;4974030;28;20519;-66
2022/11/17 05:14:16;;;;;;;7.20;6.60;;;8.60;99.90;;;;;;4966251;28;20462;-65
2022/11/17 05:19:31;;;;;;;5.80;5.30;;;8.50;99.90;;;;;;4975968;28;20526;-66
2022/11/17 05:21:56;;;;;;;6.37;5.10;;;8.60;99.90;;;;;;4974199;28;20523;-66
2022/11/17 05:24:22;;;;;;;11.40;6.00;;;8.50;99.90;;;;;;4978547;28;20517;-66
2022/11/17 05:26:48;;;;;;;5.60;5.10;;;8.50;99.90;;;;;;4978195;28;20231;-66
2022/11/17 05:29:17;;;;;;;6.20;5.60;;;8.50;99.90;;;;;;4968888;28;20195;-66
2022/11/17 05:31:43;;;;;;;10.53;7.90;;;8.60;99.90;;;;;;4975803;28;20444;-65
2022/11/17 05:34:11;;;;;;;7.80;7.03;;;8.60;99.90;;;;;;4988193;28;20435;-66
2022/11/17 05:36:38;;;;;;;7.27;6.53;;;8.60;99.90;;;;;;4984142;28;20455;-66
2022/11/17 05:39:04;;;;;;;9.27;8.10;;;8.60;99.90;;;;;;4976648;28;20820;-66
2022/11/17 05:41:30;;;;;;;6.43;5.93;;;8.60;99.90;;;;;;4985723;28;20453;-67
2022/11/17 05:43:56;;;;;;;5.90;5.30;;;8.60;99.90;;;;;;4972322;28;20827;-66
2022/11/17 05:46:22;;;;;;;6.73;5.10;;;8.60;99.90;;;;;;4982166;28;20242;-66
2022/11/17 05:48:51;;;;;;;6.60;6.00;;;8.60;99.90;;;;;;4980384;28;20496;-66
2022/11/17 05:51:19;;;;;;;7.07;6.40;;;8.60;99.90;;;;;;4988278;28;20175;-66
2022/11/17 05:53:44;;;;;;;8.63;6.33;;;8.60;99.90;;;;;;4985348;28;20435;-67
2022/11/17 05:56:27;;;;;;;9.87;7.53;;;8.60;99.90;;;;;;4986827;28;20441;-65
2022/11/17 05:59:13;;;;;;;7.23;5.73;;;8.60;99.90;;;;;;4976281;28;20300;-66
2022/11/17 06:01:44;;;;;;;8.03;5.53;;;8.50;99.90;;;;;;5003759;28;20462;-65
2022/11/17 06:04:15;;;;;;;5.37;4.83;;;8.50;99.90;;;;;;4974401;28;20948;-66
2022/11/17 06:06:40;;;;;;;4.90;4.40;;;8.50;99.90;;;;;;4974713;28;20546;-65
2022/11/17 06:09:06;;;;;;;5.33;4.83;;;8.50;99.90;;;;;;4974721;28;20870;-65
2022/11/17 06:11:31;;;;;;;4.43;4.03;;;8.50;99.90;;;;;;4974005;28;20184;-65
2022/11/17 06:13:57;;;;;;;4.90;4.20;;;8.60;99.90;;;;;;4975059;28;20176;-66
2022/11/17 06:16:26;;;;;;;4.53;3.57;;;8.60;99.90;;;;;;4974909;28;20636;-66
2022/11/17 06:19:06;;;;;;;5.13;4.40;;;8.60;99.90;;;;;;4974619;28;20243;-66
2022/11/17 06:21:33;;;;;;;5.17;3.90;;;8.70;99.90;;;;;;4973743;28;20522;-66
2022/11/17 06:24:00;;;;;;;6.20;4.00;;;8.70;99.90;;;;;;4975505;28;20450;-66
2022/11/17 06:26:25;;;;;;;5.40;4.73;;;8.70;99.90;;;;;;4974651;28;20467;-66
2022/11/17 06:28:51;;;;;;;4.40;4.00;;;8.70;99.90;;;;;;4972852;28;20446;-65
2022/11/17 06:31:17;;;;;;;4.97;3.70;;;8.80;99.90;;;;;;4974266;28;20164;-65
2022/11/17 06:33:44;;;;;;;4.80;4.40;;;8.80;99.90;;;;;;4974644;28;20450;-65
2022/11/17 06:36:10;;;;;;;7.03;5.43;;;8.80;99.90;;;;;;4965932;28;20514;-64
2022/11/17 06:38:35;;;;;;;7.03;4.83;;;8.80;99.90;;;;;;4973699;28;20578;-66
2022/11/17 06:41:04;;;;;;;6.13;5.00;;;8.70;99.90;;;;;;4974213;28;20192;-67
2022/11/17 06:43:31;;;;;;;4.77;4.20;;;8.70;99.90;;;;;;4974299;28;20187;-64
2022/11/17 06:46:01;;;;;;;3.80;3.50;;;8.70;99.90;;;;;;4974358;28;20471;-66
2022/11/17 06:48:27;;;;;;;3.63;3.33;;;8.70;99.90;;;;;;4973339;28;20896;-68
2022/11/17 06:50:54;;;;;;;3.90;3.60;;;8.70;99.90;;;;;;4979454;28;20440;-66
2022/11/17 06:53:25;;;;;;;4.00;3.70;;;8.70;99.90;;;;;;4981537;28;20657;-66
2022/11/17 06:56:00;;;;;;;3.63;2.97;;;8.70;99.90;;;;;;4983735;28;20562;-68
2022/11/17 06:58:26;;;;;;;4.10;3.77;;;8.70;99.90;;;;;;4973360;28;20435;-66
2022/11/17 07:00:51;;;;;;;10.67;6.23;;;8.70;99.90;;;;;;4984360;28;20529;-66
2022/11/17 07:03:17;;;;;;;4.50;3.50;;;8.80;99.90;;;;;;4975203;28;20936;-65
2022/11/17 07:05:43;;;;;;;6.23;3.57;;;8.80;99.90;;;;;;4973840;28;20184;-68
2022/11/17 07:08:09;;;;;;;7.50;2.70;;;8.90;99.90;;;;;;4976240;28;20315;-67
2022/11/17 07:10:35;;;;;;;5.67;3.40;;;8.90;99.90;;;;;;4972216;28;21324;-65
2022/11/17 07:13:02;;;;;;;3.90;3.47;;;9.00;99.90;;;;;;4971875;28;20199;-66
2022/11/17 07:15:28;;;;;;;6.80;3.90;;;9.10;99.90;;;;;;4979233;28;21320;-67
2022/11/17 07:17:53;;;;;;;3.63;2.67;;;9.30;99.90;;;;;;4980905;28;20514;-68
2022/11/17 07:20:19;;;;;;;7.20;3.40;;;9.50;99.90;;;;;;4979979;28;20448;-65
2022/11/17 07:22:45;;;;;;;3.67;2.93;;;9.50;99.90;;;;;;4973169;28;20669;-65
2022/11/17 07:25:11;;;;;;;4.87;3.17;;;9.50;99.90;;;;;;4984968;28;20184;-65
2022/11/17 07:27:37;;;;;;;7.60;3.60;;;9.50;99.90;;;;;;4973684;28;20220;-65
2022/11/17 07:30:04;;;;;;;4.43;3.20;;;9.50;99.90;;;;;;4974040;28;20463;-67
2022/11/17 07:32:31;;;;;;;3.00;2.70;;;9.50;99.90;;;;;;4974303;28;20427;-67
2022/11/17 07:34:58;;;;;;;5.30;3.60;;;9.60;99.90;;;;;;4974422;28;20458;-65
2022/11/17 07:37:24;;;;;;;3.47;3.07;;;9.60;99.90;;;;;;4974119;28;20461;-68
2022/11/17 07:39:49;;;;;;;3.83;2.97;;;9.60;99.90;;;;;;4944491;28;20447;-66
2022/11/17 07:42:15;;;;;;;2.87;2.60;;;9.60;99.90;;;;;;4952005;28;20254;-66
2022/11/17 07:44:41;;;;;;;2.47;2.27;;;9.60;99.90;;;;;;4970466;28;20239;-68
2022/11/17 07:47:06;;;;;;;4.57;2.07;;;9.60;99.90;;;;;;4973493;28;20582;-65
2022/11/17 07:49:32;;;;;;;2.63;2.13;;;9.60;99.90;;;;;;4968724;28;20172;-65
2022/11/17 07:51:57;;;;;;;2.57;2.20;;;9.70;99.90;;;;;;4973013;28;20230;-64
2022/11/17 07:54:23;;;;;;;4.20;2.33;;;9.80;99.90;;;;;;4973939;28;20247;-64
2022/11/17 07:56:48;;;;;;;1.70;1.60;;;9.90;99.90;;;;;;4973373;28;20196;-65
2022/11/17 07:59:14;;;;;;;2.70;1.90;;;10.00;99.90;;;;;;4968858;28;20192;-65
2022/11/17 08:01:40;;;;;;;4.13;2.20;;;10.10;99.90;;;;;;4973961;28;20176;-65
2022/11/17 08:04:06;;;;;;;3.67;3.13;;;10.20;99.90;;;;;;4972957;28;20322;-65
2022/11/17 08:06:32;;;;;;;4.10;1.90;;;10.30;99.90;;;;;;4973658;28;20546;-65
2022/11/17 08:08:57;;;;;;;3.30;1.30;;;10.40;99.90;;;;;;4965191;28;20191;-65
2022/11/17 08:11:23;;;;;;;1.73;1.00;;;10.50;99.90;;;;;;4973754;28;20199;-65
2022/11/17 08:13:49;;;;;;;3.43;1.23;;;10.60;99.90;;;;;;4973663;28;20669;-65
2022/11/17 08:16:15;;;;;;;1.57;1.00;;;10.70;99.90;;;;;;4972585;28;20199;-65
2022/11/17 08:18:41;;;;;;;1.93;1.10;;;10.90;99.90;;;;;;4966368;28;20435;-66
2022/11/17 08:21:14;;;;;;;1.53;0.90;;;11.00;99.90;;;;;;4972123;28;20179;-65
2022/11/17 08:23:42;;;;;;;1.60;1.03;;;11.20;99.90;;;;;;4973487;28;20832;-65
2022/11/17 08:26:09;;;;;;;2.83;1.33;;;11.30;99.90;;;;;;4972922;28;20455;-65
2022/11/17 08:28:36;;;;;;;3.17;1.33;;;11.30;99.90;;;;;;4966884;28;20515;-66
2022/11/17 08:31:03;;;;;;;2.27;1.37;;;11.40;99.90;;;;;;4972731;28;20451;-64
2022/11/17 08:33:29;;;;;;;2.07;1.00;;;11.30;99.90;;;;;;4972700;28;20810;-64
2022/11/17 08:35:59;;;;;;;1.83;1.30;;;11.20;99.90;;;;;;4973313;28;20428;-65
2022/11/17 08:38:27;;;;;;;2.00;1.60;;;11.20;99.90;;;;;;4969483;28;20493;-66
2022/11/17 08:41:01;;;;;;;1.10;1.00;;;11.20;99.90;;;;;;4969335;28;20423;-68
2022/11/17 08:43:27;;;;;;;1.63;0.97;;;11.20;99.90;;;;;;4973251;28;20428;-67
2022/11/17 08:45:52;;;;;;;2.13;0.87;;;11.20;99.90;;;;;;4972731;28;20436;-66
2022/11/17 08:48:18;;;;;;;1.43;0.97;;;11.30;99.90;;;;;;4970084;28;20657;-65
2022/11/17 08:50:44;;;;;;;1.33;0.87;;;11.40;99.90;;;;;;4968580;28;20625;-67
2022/11/17 08:53:18;;;;;;;2.50;1.00;;;11.50;99.90;;;;;;4972339;28;20219;-66
2022/11/17 08:55:44;;;;;;;5.40;1.47;;;11.50;99.90;;;;;;4973226;28;20254;-68
2022/11/17 08:58:11;;;;;;;3.20;0.90;;;11.60;99.90;;;;;;4971741;28;20443;-66
2022/11/17 09:00:37;;;;;;;2.80;1.80;;;11.70;99.90;;;;;;4966406;28;20239;-64
2022/11/17 09:03:07;;;;;;;2.00;1.20;;;11.80;99.90;;;;;;4973062;28;20533;-65
2022/11/17 09:05:37;;;;;;;0.90;0.67;;;11.90;99.90;;;;;;4972348;28;20661;-68
2022/11/17 09:08:03;;;;;;;1.10;1.00;;;11.80;99.90;;;;;;4972343;28;20545;-65
2022/11/17 09:10:28;;;;;;;3.20;1.20;;;12.00;99.90;;;;;;4965483;28;20423;-65
2022/11/17 09:12:55;;;;;;;1.77;1.20;;;12.30;99.90;;;;;;4972421;28;20172;-64
2022/11/17 09:15:21;;;;;;;1.43;1.33;;;12.50;99.90;;;;;;4972671;28;20227;-64
2022/11/17 09:17:46;;;;;;;2.00;1.33;;;12.90;99.90;;;;;;4968684;28;20458;-64
2022/11/17 09:20:13;;;;;;;1.90;1.10;;;12.60;99.90;;;;;;4968714;28;20535;-65
2022/11/17 09:22:39;;;;;;;2.30;0.60;;;12.60;99.90;;;;;;4976733;28;20180;-65
2022/11/17 09:25:05;;;;;;;1.70;0.77;;;12.50;99.90;;;;;;4975624;28;20816;-65
2022/11/17 09:27:30;;;;;;;1.90;0.73;;;12.50;99.90;;;;;;4976416;28;20728;-65
2022/11/17 09:29:56;;;;;;;1.23;0.90;;;12.60;99.90;;;;;;4969001;28;20184;-65
2022/11/17 09:32:21;;;;;;;4.30;0.83;;;12.80;99.90;;;;;;4975821;28;20180;-64
2022/11/17 09:34:47;;;;;;;1.83;1.40;;;12.80;99.90;;;;;;4976888;28;20577;-65
2022/11/17 09:37:13;;;;;;;2.43;1.33;;;12.80;99.90;;;;;;4975615;28;20246;-65
2022/11/17 09:39:38;;;;;;;2.53;1.27;;;13.00;99.90;;;;;;4968993;28;20462;-65
2022/11/17 09:42:04;;;;;;;2.57;1.27;;;13.50;99.90;;;;;;4976046;28;20180;-67
2022/11/17 09:44:39;;;;;;;5.90;1.50;;;14.00;99.90;;;;;;4976284;28;20192;-66
2022/11/17 09:47:39;;;;;;;2.90;1.30;;;14.00;99.90;;;;;;4975683;28;20474;-65
2022/11/17 09:50:26;;;;;;;1.20;0.87;;;13.60;99.90;;;;;;4968403;28;20431;-66
2022/11/17 09:53:22;;;;;;;1.00;0.90;;;13.30;99.90;;;;;;4976343;28;20553;-65
2022/11/17 09:55:52;;;;;;;1.37;1.00;;;13.30;99.90;;;;;;4967294;28;20452;-63
2022/11/17 09:58:40;;;;;;;1.97;1.00;;;13.20;99.90;;;;;;4973814;28;20921;-65
2022/11/17 10:01:10;;;;;;;2.83;1.50;;;13.30;99.90;;;;;;4973608;28;20418;-64
2022/11/17 10:03:36;;;;;;;1.43;0.90;;;13.00;99.90;;;;;;4976361;28;20967;-64
2022/11/17 10:06:10;;;;;;;1.77;1.40;;;13.00;99.90;;;;;;4975119;28;20457;-64
2022/11/17 10:09:03;;;;;;;3.07;1.10;;;13.20;99.90;;;;;;4970318;28;20191;-65
2022/11/17 10:11:35;;;;;;;1.73;1.33;;;13.70;99.90;;;;;;4976102;28;20917;-65
2022/11/17 10:14:07;;;;;;;1.40;1.30;;;14.80;99.90;;;;;;4974921;28;20427;-65
2022/11/17 10:16:34;;;;;;;3.23;1.07;;;15.70;99.90;;;;;;4975611;28;20514;-65
2022/11/17 10:19:11;;;;;;;2.73;1.60;;;16.90;99.90;;;;;;4966453;28;20433;-64
2022/11/17 10:21:37;;;;;;;2.17;1.20;;;18.00;99.90;;;;;;4975037;28;20493;-65
2022/11/17 10:24:03;;;;;;;3.50;1.40;;;18.90;99.90;;;;;;4975733;28;20423;-64
2022/11/17 10:26:42;;;;;;;3.27;1.10;;;18.10;99.90;;;;;;4974504;28;20290;-64
2022/11/17 10:29:11;;;;;;;3.73;1.73;;;16.60;99.90;;;;;;4966303;28;20194;-65
2022/11/17 10:31:44;;;;;;;1.77;1.40;;;15.20;99.90;;;;;;4974364;28;20416;-65
2022/11/17 10:34:30;;;;;;;6.13;1.90;;;14.70;99.90;;;;;;4975683;28;20419;-65
2022/11/17 10:37:03;;;;;;;2.93;1.20;;;14.50;99.90;;;;;;4973277;28;20479;-66
2022/11/17 10:39:37;;;;;;;3.00;2.10;;;14.20;99.90;;;;;;4958401;28;20507;-65
2022/11/17 10:42:21;;;;;;;5.83;2.63;;;15.00;99.90;;;;;;4975157;28;20470;-65
2022/11/17 10:44:51;;;;;;;5.30;1.30;;;15.70;99.90;;;;;;4975042;28;20436;-65
2022/11/17 10:47:29;;;;;;;2.40;1.53;;;15.40;99.90;;;;;;4975248;28;20459;-65
2022/11/17 10:50:20;;;;;;;3.20;1.43;;;15.50;99.90;;;;;;4965110;28;20441;-65
2022/11/17 10:52:48;;;;;;;3.47;1.10;;;15.10;99.90;;;;;;4974943;28;20427;-67
2022/11/17 10:55:24;;;;;;;4.00;1.77;;;14.70;99.90;;;;;;4983563;28;20429;-65
2022/11/17 10:57:55;;;;;;;4.63;1.67;;;14.20;99.90;;;;;;4975081;28;20439;-65
2022/11/17 11:00:36;;;;;;;2.80;1.83;;;14.20;99.90;;;;;;4965505;28;20419;-65
2022/11/17 11:03:15;;;;;;;3.37;1.10;;;15.20;99.90;;;;;;4974444;28;20419;-65
2022/11/17 11:06:02;;;;;;;2.73;1.70;;;16.70;99.90;;;;;;4974719;28;20426;-65
2022/11/17 11:08:50;;;;;;;2.67;1.73;;;18.60;99.90;;;;;;4970274;28;20796;-66
2022/11/17 11:11:34;;;;;;;2.40;1.53;;;19.00;99.90;;;;;;4973617;28;20420;-64
2022/11/17 11:14:12;;;;;;;2.70;1.40;;;19.30;99.90;;;;;;4974161;28;20756;-65
2022/11/17 11:16:38;;;;;;;2.13;1.40;;;20.90;98.80;;;;;;4974206;28;20837;-65
2022/11/17 11:19:12;;;;;;;4.53;1.57;;;21.00;95.00;;;;;;4965635;28;20420;-65
2022/11/17 11:22:14;;;;;;;1.70;1.30;;;20.40;96.70;;;;;;4974019;28;20473;-64
2022/11/17 11:25:03;;;;;;;3.67;1.47;;;19.00;98.90;;;;;;4974555;28;20941;-66
2022/11/17 11:28:00;;;;;;;4.73;1.60;;;17.50;99.90;;;;;;4973408;28;20459;-67
2022/11/17 11:30:29;;;;;;;4.53;2.37;;;16.30;99.90;;;;;;4965025;28;20427;-67
2022/11/17 11:33:33;;;;;;;7.03;2.07;;;16.20;99.90;;;;;;4970498;28;20470;-67
2022/11/17 11:36:10;;;;;;;2.53;1.60;;;16.90;99.90;;;;;;4971999;28;20997;-68
2022/11/17 11:38:48;;;;;;;4.80;3.00;;;16.10;99.90;;;;;;4966751;28;20433;-67
2022/11/17 11:41:42;;;;;;;9.23;1.80;;;14.80;99.90;;;;;;4973427;28;20506;-68
2022/11/17 11:44:29;;;;;;;3.33;2.10;;;14.10;99.90;;;;;;4971787;28;20549;-66
2022/11/17 11:47:01;;;;;;;5.50;1.73;;;13.90;99.90;;;;;;4973381;28;20514;-69
2022/11/17 11:49:56;;;;;;;2.33;1.50;;;13.70;99.90;;;;;;4964546;28;20956;-67
2022/11/17 11:52:26;;;;;;;3.37;2.60;;;13.60;99.90;;;;;;4971974;28;20767;-67
2022/11/17 11:55:00;;;;;;;3.23;1.80;;;13.60;99.90;;;;;;4972998;28;20412;-66
2022/11/17 11:57:37;;;;;;;3.83;1.73;;;13.50;99.90;;;;;;4972013;28;20458;-66
2022/11/17 12:00:06;;;;;;;4.30;1.50;;;14.80;99.90;;;;;;4965986;28;20426;-66
2022/11/17 12:03:04;;;;;;;4.97;1.43;;;16.10;99.90;;;;;;4973636;28;20428;-66
2022/11/17 12:05:51;;;;;;;3.07;1.70;;;16.30;99.90;;;;;;4970299;28;20514;-66
2022/11/17 12:08:24;;;;;;;3.47;1.67;;;17.70;99.90;;;;;;4953681;28;20508;-68
2022/11/17 12:11:59;;;;;;;3.00;1.50;;;19.80;99.90;;;;;;4969954;28;20420;-66
2022/11/17 12:13:51;;;;;;;3.07;1.83;;;20.20;99.90;;;;;;4973409;28;20435;-66
2022/11/17 12:16:25;;;;;;;2.10;1.67;;;20.60;96.90;;;;;;4973121;28;20451;-66
2022/11/17 12:18:51;;;;;;;3.67;1.80;;;21.10;96.10;;;;;;4971646;28;20523;-67
2022/11/17 12:21:25;;;;;;;3.83;1.70;;;21.50;94.10;;;;;;4972766;28;20495;-66
2022/11/17 12:24:05;;;;;;;4.50;1.70;;;21.40;92.80;;;;;;4973351;28;20275;-66
2022/11/17 12:26:32;;;;;;;2.70;1.43;;;20.10;94.80;;;;;;4973574;28;20471;-67
2022/11/17 12:29:20;;;;;;;5.37;2.00;;;19.90;95.50;;;;;;4969760;28;20427;-66
2022/11/17 12:31:47;;;;;;;10.00;2.63;;;18.10;99.90;;;;;;4973495;28;20479;-66
2022/11/17 12:34:25;;;;;;;3.03;1.30;;;16.80;99.90;;;;;;4972989;28;20411;-66
2022/11/17 12:37:13;;;;;;;4.07;1.83;;;17.00;99.90;;;;;;4972518;28;20454;-66
2022/11/17 12:39:55;;;;;;;3.60;2.20;;;18.10;99.90;;;;;;4960240;28;20443;-67
2022/11/17 12:42:21;;;;;;;5.13;1.50;;;18.70;99.90;;;;;;4970817;28;20439;-66
2022/11/17 12:44:46;;;;;;;3.30;1.83;;;19.30;99.80;;;;;;4972973;28;20420;-66
2022/11/17 12:47:12;;;;;;;4.77;1.60;;;19.70;97.90;;;;;;4972734;28;20212;-67
2022/11/17 12:50:11;;;;;;;3.03;1.83;;;20.50;96.60;;;;;;4969675;28;20210;-65
2022/11/17 12:52:53;;;;;;;2.90;1.80;;;20.50;94.60;;;;;;4972636;28;20195;-66
2022/11/17 12:55:48;;;;;;;2.97;1.53;;;21.40;93.20;;;;;;4973384;28;20412;-66
2022/11/17 12:58:19;;;;;;;3.63;1.90;;;21.90;90.70;;;;;;4970703;28;20443;-67
2022/11/17 13:01:26;;;;;;;3.67;1.73;;;21.10;91.90;;;;;;4971768;28;20412;-67
2022/11/17 13:04:05;;;;;;;4.77;1.90;;;21.20;90.70;;;;;;4973210;28;20430;-66
2022/11/17 13:06:30;;;;;;;3.10;2.00;;;21.00;90.50;;;;;;4972571;28;20459;-66
2022/11/17 13:08:58;;;;;;;6.07;2.83;;;19.60;93.00;;;;;;4969690;28;20431;-67
2022/11/17 13:11:25;;;;;;;6.07;2.20;;;18.10;96.20;;;;;;4972322;28;20231;-67
2022/11/17 13:14:14;;;;;;;4.70;2.60;;;17.50;99.90;;;;;;4972043;28;20435;-67
2022/11/17 13:16:45;;;;;;;6.30;2.30;;;18.80;96.80;;;;;;4970827;28;20447;-66
2022/11/17 13:19:37;;;;;;;4.27;1.67;;;19.50;94.70;;;;;;4968723;28;20427;-66
2022/11/17 13:22:04;;;;;;;6.37;2.40;;;19.90;93.80;;;;;;4971025;28;20419;-66
2022/11/17 13:24:38;;;;;;;4.70;2.17;;;20.60;92.70;;;;;;4972432;28;20932;-66
2022/11/17 13:27:06;;;;;;;3.10;1.70;;;19.90;91.40;;;;;;4972805;28;20512;-66
2022/11/17 13:29:32;;;;;;;2.90;1.50;;;19.00;93.30;;;;;;4968733;28;20948;-66
2022/11/17 13:32:15;;;;;;;2.57;1.47;;;19.10;93.50;;;;;;4972272;28;20423;-66
2022/11/17 13:34:50;;;;;;;9.30;2.13;;;17.80;96.10;;;;;;4971934;28;20804;-66
2022/11/17 13:37:21;;;;;;;4.17;1.57;;;17.00;99.40;;;;;;4972457;28;20500;-68
2022/11/17 13:40:20;;;;;;;2.43;1.37;;;16.00;99.90;;;;;;4971132;28;20999;-68